sensor_id;sensor_type;location;lat;lon;timestamp;temperature;humidity
1411;DHT22;700;51.906;8.404;2022-09-09T00:06:42;18.60;99.90
1411;DHT22;700;51.906;8.404;2022-09-09T00:17:11;18.20;99.90
1411;DHT22;700;51.906;8.404;2022-09-09T00:22:17;18.40;99.90
1411;DHT22;700;51.906;8.404;2022-09-09T00:32:44;18.30;99.90
1411;DHT22;700;51.906;8.404;2022-09-09T00:37:46;18.20;99.90
1411;DHT22;700;51.906;8.404;2022-09-09T00:43:06;17.90;99.90
1411;DHT22;700;51.906;8.404;2022-09-09T00:48:14;17.70;99.90
1411;DHT22;700;51.906;8.404;2022-09-09T00:59:17;18.20;99.90
1411;DHT22;700;51.906;8.404;2022-09-09T01:04:31;18.50;99.90
1411;DHT22;700;51.906;8.404;2022-09-09T01:09:56;18.60;99.90
1411;DHT22;700;51.906;8.404;2022-09-09T01:20:23;18.80;99.90
1411;DHT22;700;51.906;8.404;2022-09-09T01:31:12;18.60;99.90
1411;DHT22;700;51.906;8.404;2022-09-09T01:36:42;18.70;99.90
1411;DHT22;700;51.906;8.404;2022-09-09T01:41:45;18.70;99.90
1411;DHT22;700;51.906;8.404;2022-09-09T01:46:48;18.50;99.90
1411;DHT22;700;51.906;8.404;2022-09-09T01:51:53;18.30;99.90
1411;DHT22;700;51.906;8.404;2022-09-09T02:02:23;18.30;99.90
1411;DHT22;700;51.906;8.404;2022-09-09T02:07:41;18.40;99.90
1411;DHT22;700;51.906;8.404;2022-09-09T02:12:47;18.60;99.90
1411;DHT22;700;51.906;8.404;2022-09-09T02:17:49;18.70;99.90
1411;DHT22;700;51.906;8.404;2022-09-09T02:22:53;18.80;99.90
1411;DHT22;700;51.906;8.404;2022-09-09T02:27:55;18.80;99.90
1411;DHT22;700;51.906;8.404;2022-09-09T02:33:00;18.80;99.90
1411;DHT22;700;51.906;8.404;2022-09-09T02:38:07;18.80;99.90
1411;DHT22;700;51.906;8.404;2022-09-09T02:43:12;18.80;99.90
1411;DHT22;700;51.906;8.404;2022-09-09T02:48:21;18.80;99.90
1411;DHT22;700;51.906;8.404;2022-09-09T02:53:44;18.80;99.90
1411;DHT22;700;51.906;8.404;2022-09-09T02:58:46;18.70;99.90
1411;DHT22;700;51.906;8.404;2022-09-09T03:03:47;18.40;99.90
1411;DHT22;700;51.906;8.404;2022-09-09T03:08:50;18.60;99.90
1411;DHT22;700;51.906;8.404;2022-09-09T03:13:54;18.70;99.90
1411;DHT22;700;51.906;8.404;2022-09-09T03:18:57;18.60;99.90
1411;DHT22;700;51.906;8.404;2022-09-09T03:24:00;18.50;99.90
1411;DHT22;700;51.906;8.404;2022-09-09T03:29:04;18.90;99.90
1411;DHT22;700;51.906;8.404;2022-09-09T03:34:07;18.90;99.90
1411;DHT22;700;51.906;8.404;2022-09-09T03:39:12;19.10;99.90
1411;DHT22;700;51.906;8.404;2022-09-09T03:44:14;19.00;99.90
1411;DHT22;700;51.906;8.404;2022-09-09T03:49:17;18.90;99.90
1411;DHT22;700;51.906;8.404;2022-09-09T03:54:20;18.80;99.90
1411;DHT22;700;51.906;8.404;2022-09-09T03:59:21;18.90;99.90
1411;DHT22;700;51.906;8.404;2022-09-09T04:04:23;18.80;99.90
1411;DHT22;700;51.906;8.404;2022-09-09T04:09:26;18.40;99.90
1411;DHT22;700;51.906;8.404;2022-09-09T04:14:29;18.40;99.90
1411;DHT22;700;51.906;8.404;2022-09-09T04:19:34;18.00;99.90
1411;DHT22;700;51.906;8.404;2022-09-09T04:24:35;18.00;99.90
1411;DHT22;700;51.906;8.404;2022-09-09T04:29:36;18.10;99.90
1411;DHT22;700;51.906;8.404;2022-09-09T04:34:37;18.40;99.90
1411;DHT22;700;51.906;8.404;2022-09-09T04:39:37;18.50;99.90
1411;DHT22;700;51.906;8.404;2022-09-09T04:44:38;18.70;99.90
1411;DHT22;700;51.906;8.404;2022-09-09T04:49:39;18.60;99.90
1411;DHT22;700;51.906;8.404;2022-09-09T04:54:40;18.60;99.90
1411;DHT22;700;51.906;8.404;2022-09-09T04:59:40;18.70;99.90
1411;DHT22;700;51.906;8.404;2022-09-09T05:04:43;18.60;99.90
1411;DHT22;700;51.906;8.404;2022-09-09T05:09:44;18.70;99.90
1411;DHT22;700;51.906;8.404;2022-09-09T05:14:45;18.60;99.90
1411;DHT22;700;51.906;8.404;2022-09-09T05:19:48;18.60;99.90
1411;DHT22;700;51.906;8.404;2022-09-09T05:24:52;18.40;99.90
1411;DHT22;700;51.906;8.404;2022-09-09T05:29:55;18.50;99.90
1411;DHT22;700;51.906;8.404;2022-09-09T05:34:57;18.50;99.90
1411;DHT22;700;51.906;8.404;2022-09-09T05:39:58;18.70;99.90
1411;DHT22;700;51.906;8.404;2022-09-09T05:45:01;18.70;99.90
1411;DHT22;700;51.906;8.404;2022-09-09T05:50:02;18.90;99.90
1411;DHT22;700;51.906;8.404;2022-09-09T05:55:06;19.00;99.90
1411;DHT22;700;51.906;8.404;2022-09-09T06:00:07;19.00;99.90
1411;DHT22;700;51.906;8.404;2022-09-09T06:05:10;19.20;99.90
1411;DHT22;700;51.906;8.404;2022-09-09T06:10:11;19.30;99.90
1411;DHT22;700;51.906;8.404;2022-09-09T06:15:14;19.40;99.90
1411;DHT22;700;51.906;8.404;2022-09-09T06:20:14;19.50;99.90
1411;DHT22;700;51.906;8.404;2022-09-09T06:25:17;19.50;99.90
1411;DHT22;700;51.906;8.404;2022-09-09T06:30:18;19.70;99.90
1411;DHT22;700;51.906;8.404;2022-09-09T06:35:22;19.60;99.90
1411;DHT22;700;51.906;8.404;2022-09-09T06:40:22;19.50;99.90
1411;DHT22;700;51.906;8.404;2022-09-09T06:45:25;19.70;99.90
1411;DHT22;700;51.906;8.404;2022-09-09T06:50:26;19.80;99.90
1411;DHT22;700;51.906;8.404;2022-09-09T06:55:26;20.10;99.90
1411;DHT22;700;51.906;8.404;2022-09-09T07:00:31;20.30;99.90
1411;DHT22;700;51.906;8.404;2022-09-09T07:05:32;20.20;99.90
1411;DHT22;700;51.906;8.404;2022-09-09T07:10:32;20.10;99.90
1411;DHT22;700;51.906;8.404;2022-09-09T07:15:34;20.20;99.90
1411;DHT22;700;51.906;8.404;2022-09-09T07:20:35;20.40;99.90
1411;DHT22;700;51.906;8.404;2022-09-09T07:25:38;20.40;99.90
1411;DHT22;700;51.906;8.404;2022-09-09T07:30:56;20.50;99.90
1411;DHT22;700;51.906;8.404;2022-09-09T07:36:20;20.70;99.90
1411;DHT22;700;51.906;8.404;2022-09-09T07:41:29;20.60;99.90
1411;DHT22;700;51.906;8.404;2022-09-09T07:46:35;20.40;99.90
1411;DHT22;700;51.906;8.404;2022-09-09T07:51:44;20.40;99.90
1411;DHT22;700;51.906;8.404;2022-09-09T07:56:46;20.60;99.90
1411;DHT22;700;51.906;8.404;2022-09-09T08:01:53;21.10;99.90
1411;DHT22;700;51.906;8.404;2022-09-09T08:06:58;21.50;99.90
1411;DHT22;700;51.906;8.404;2022-09-09T08:12:02;21.80;99.90
1411;DHT22;700;51.906;8.404;2022-09-09T08:17:02;21.80;99.90
1411;DHT22;700;51.906;8.404;2022-09-09T08:22:05;21.90;99.90
1411;DHT22;700;51.906;8.404;2022-09-09T08:27:11;22.20;99.90
1411;DHT22;700;51.906;8.404;2022-09-09T08:32:14;22.10;99.90
1411;DHT22;700;51.906;8.404;2022-09-09T08:37:14;21.80;99.90
1411;DHT22;700;51.906;8.404;2022-09-09T08:47:59;21.90;99.90
1411;DHT22;700;51.906;8.404;2022-09-09T08:53:23;22.20;99.90
1411;DHT22;700;51.906;8.404;2022-09-09T08:58:25;22.40;99.90
1411;DHT22;700;51.906;8.404;2022-09-09T09:19:15;21.90;99.90
1411;DHT22;700;51.906;8.404;2022-09-09T09:24:45;22.00;99.90
1411;DHT22;700;51.906;8.404;2022-09-09T09:29:44;24.80;99.90
1411;DHT22;700;51.906;8.404;2022-09-09T09:34:51;31.50;94.00
1411;DHT22;700;51.906;8.404;2022-09-09T09:39:54;34.10;70.60
1411;DHT22;700;51.906;8.404;2022-09-09T09:45:07;36.00;56.50
1411;DHT22;700;51.906;8.404;2022-09-09T09:50:19;33.50;59.80
1411;DHT22;700;51.906;8.404;2022-09-09T09:55:23;33.50;58.40
1411;DHT22;700;51.906;8.404;2022-09-09T10:00:27;32.90;60.20
1411;DHT22;700;51.906;8.404;2022-09-09T10:05:30;33.10;57.90
1411;DHT22;700;51.906;8.404;2022-09-09T10:10:40;35.50;54.40
1411;DHT22;700;51.906;8.404;2022-09-09T10:26:48;35.30;53.90
1411;DHT22;700;51.906;8.404;2022-09-09T10:37:35;34.60;51.10
1411;DHT22;700;51.906;8.404;2022-09-09T10:42:39;34.40;53.50
1411;DHT22;700;51.906;8.404;2022-09-09T10:58:30;37.20;47.20
1411;DHT22;700;51.906;8.404;2022-09-09T11:03:38;35.30;48.10
1411;DHT22;700;51.906;8.404;2022-09-09T11:08:41;33.70;51.00
1411;DHT22;700;51.906;8.404;2022-09-09T11:19:18;33.70;52.20
1411;DHT22;700;51.906;8.404;2022-09-09T11:24:57;37.20;46.80
1411;DHT22;700;51.906;8.404;2022-09-09T11:30:20;33.60;48.60
1411;DHT22;700;51.906;8.404;2022-09-09T11:35:38;29.80;54.20
1411;DHT22;700;51.906;8.404;2022-09-09T11:40:39;27.00;61.50
1411;DHT22;700;51.906;8.404;2022-09-09T11:45:42;25.80;70.10
1411;DHT22;700;51.906;8.404;2022-09-09T11:50:43;25.80;75.00
1411;DHT22;700;51.906;8.404;2022-09-09T11:55:43;26.40;73.70
1411;DHT22;700;51.906;8.404;2022-09-09T12:00:48;26.00;77.80
1411;DHT22;700;51.906;8.404;2022-09-09T12:05:53;26.20;76.00
1411;DHT22;700;51.906;8.404;2022-09-09T12:10:58;26.20;72.90
1411;DHT22;700;51.906;8.404;2022-09-09T12:16:03;25.70;76.00
1411;DHT22;700;51.906;8.404;2022-09-09T12:37:33;26.50;77.40
1411;DHT22;700;51.906;8.404;2022-09-09T12:42:39;27.30;75.00
1411;DHT22;700;51.906;8.404;2022-09-09T12:48:00;28.40;69.60
1411;DHT22;700;51.906;8.404;2022-09-09T12:58:18;26.20;75.00
1411;DHT22;700;51.906;8.404;2022-09-09T13:03:20;25.90;73.50
1411;DHT22;700;51.906;8.404;2022-09-09T13:08:21;25.20;76.50
1411;DHT22;700;51.906;8.404;2022-09-09T13:13:26;24.60;80.60
1411;DHT22;700;51.906;8.404;2022-09-09T13:18:33;26.50;78.50
1411;DHT22;700;51.906;8.404;2022-09-09T13:23:36;31.50;62.20
1411;DHT22;700;51.906;8.404;2022-09-09T13:28:39;31.30;57.60
1411;DHT22;700;51.906;8.404;2022-09-09T13:33:40;33.10;54.30
1411;DHT22;700;51.906;8.404;2022-09-09T13:43:53;35.40;49.30
1411;DHT22;700;51.906;8.404;2022-09-09T13:49:17;34.90;49.60
1411;DHT22;700;51.906;8.404;2022-09-09T13:54:21;32.30;51.70
1411;DHT22;700;51.906;8.404;2022-09-09T13:59:23;32.80;52.30
1411;DHT22;700;51.906;8.404;2022-09-09T14:04:24;31.50;54.20
1411;DHT22;700;51.906;8.404;2022-09-09T14:09:27;29.70;56.50
1411;DHT22;700;51.906;8.404;2022-09-09T14:14:30;28.60;58.20
1411;DHT22;700;51.906;8.404;2022-09-09T14:19:34;27.20;59.80
1411;DHT22;700;51.906;8.404;2022-09-09T14:24:34;25.80;65.10
1411;DHT22;700;51.906;8.404;2022-09-09T14:29:35;25.40;67.90
1411;DHT22;700;51.906;8.404;2022-09-09T14:34:36;24.80;68.40
1411;DHT22;700;51.906;8.404;2022-09-09T14:39:36;24.80;70.00
1411;DHT22;700;51.906;8.404;2022-09-09T14:44:37;24.50;71.30
1411;DHT22;700;51.906;8.404;2022-09-09T14:49:38;24.60;74.40
1411;DHT22;700;51.906;8.404;2022-09-09T14:54:41;24.60;81.40
1411;DHT22;700;51.906;8.404;2022-09-09T14:59:42;25.00;79.00
1411;DHT22;700;51.906;8.404;2022-09-09T15:04:47;25.40;78.00
1411;DHT22;700;51.906;8.404;2022-09-09T15:09:50;25.10;74.80
1411;DHT22;700;51.906;8.404;2022-09-09T15:14:51;25.20;78.00
1411;DHT22;700;51.906;8.404;2022-09-09T15:19:52;25.10;78.20
1411;DHT22;700;51.906;8.404;2022-09-09T15:24:53;25.10;78.40
1411;DHT22;700;51.906;8.404;2022-09-09T15:29:56;24.80;79.00
1411;DHT22;700;51.906;8.404;2022-09-09T15:34:57;24.80;79.80
1411;DHT22;700;51.906;8.404;2022-09-09T15:40:00;24.90;80.90
1411;DHT22;700;51.906;8.404;2022-09-09T15:45:01;25.00;80.50
1411;DHT22;700;51.906;8.404;2022-09-09T15:50:02;25.00;81.60
1411;DHT22;700;51.906;8.404;2022-09-09T15:55:05;24.70;83.00
1411;DHT22;700;51.906;8.404;2022-09-09T16:00:09;24.60;84.90
1411;DHT22;700;51.906;8.404;2022-09-09T16:05:15;24.30;85.90
1411;DHT22;700;51.906;8.404;2022-09-09T16:10:15;24.10;88.40
1411;DHT22;700;51.906;8.404;2022-09-09T16:15:16;24.20;91.70
1411;DHT22;700;51.906;8.404;2022-09-09T16:20:19;24.30;92.20
1411;DHT22;700;51.906;8.404;2022-09-09T16:25:23;24.40;91.60
1411;DHT22;700;51.906;8.404;2022-09-09T16:30:25;24.00;92.20
1411;DHT22;700;51.906;8.404;2022-09-09T16:35:26;24.00;92.90
1411;DHT22;700;51.906;8.404;2022-09-09T16:40:27;23.80;94.20
1411;DHT22;700;51.906;8.404;2022-09-09T16:45:27;23.70;95.20
1411;DHT22;700;51.906;8.404;2022-09-09T16:50:30;23.00;97.10
1411;DHT22;700;51.906;8.404;2022-09-09T16:55:31;21.70;99.90
1411;DHT22;700;51.906;8.404;2022-09-09T17:00:32;21.10;99.90
1411;DHT22;700;51.906;8.404;2022-09-09T17:05:40;21.20;99.90
1411;DHT22;700;51.906;8.404;2022-09-09T17:10:43;21.00;99.90
1411;DHT22;700;51.906;8.404;2022-09-09T17:15:43;20.70;99.90
1411;DHT22;700;51.906;8.404;2022-09-09T17:20:46;20.90;99.90
1411;DHT22;700;51.906;8.404;2022-09-09T17:25:56;21.00;99.90
1411;DHT22;700;51.906;8.404;2022-09-09T17:31:00;20.70;99.90
1411;DHT22;700;51.906;8.404;2022-09-09T17:41:11;20.40;99.90
1411;DHT22;700;51.906;8.404;2022-09-09T17:46:24;20.20;99.90
1411;DHT22;700;51.906;8.404;2022-09-09T17:51:27;20.10;99.90
1411;DHT22;700;51.906;8.404;2022-09-09T17:56:31;20.20;99.90
1411;DHT22;700;51.906;8.404;2022-09-09T18:01:35;20.40;99.90
1411;DHT22;700;51.906;8.404;2022-09-09T18:06:40;20.10;99.90
1411;DHT22;700;51.906;8.404;2022-09-09T18:11:48;19.90;99.90
1411;DHT22;700;51.906;8.404;2022-09-09T18:16:52;19.80;99.90
1411;DHT22;700;51.906;8.404;2022-09-09T18:21:53;19.90;99.90
1411;DHT22;700;51.906;8.404;2022-09-09T18:26:53;19.90;99.90
1411;DHT22;700;51.906;8.404;2022-09-09T18:31:54;19.90;99.90
1411;DHT22;700;51.906;8.404;2022-09-09T18:36:55;19.80;99.90
1411;DHT22;700;51.906;8.404;2022-09-09T18:41:58;19.60;99.90
1411;DHT22;700;51.906;8.404;2022-09-09T18:47:00;19.60;99.90
1411;DHT22;700;51.906;8.404;2022-09-09T18:52:02;19.70;99.90
1411;DHT22;700;51.906;8.404;2022-09-09T18:57:08;19.60;99.90
1411;DHT22;700;51.906;8.404;2022-09-09T19:02:09;19.50;99.90
1411;DHT22;700;51.906;8.404;2022-09-09T19:07:13;19.30;99.90
1411;DHT22;700;51.906;8.404;2022-09-09T19:12:13;19.10;99.90
1411;DHT22;700;51.906;8.404;2022-09-09T19:17:14;19.10;99.90
1411;DHT22;700;51.906;8.404;2022-09-09T19:22:15;19.10;99.90
1411;DHT22;700;51.906;8.404;2022-09-09T19:27:16;19.10;99.90
1411;DHT22;700;51.906;8.404;2022-09-09T19:32:16;19.20;99.90
1411;DHT22;700;51.906;8.404;2022-09-09T19:37:18;18.90;99.90
1411;DHT22;700;51.906;8.404;2022-09-09T19:42:18;18.70;99.90
1411;DHT22;700;51.906;8.404;2022-09-09T19:47:19;18.90;99.90
1411;DHT22;700;51.906;8.404;2022-09-09T19:52:19;18.90;99.90
1411;DHT22;700;51.906;8.404;2022-09-09T19:57:23;18.90;99.90
1411;DHT22;700;51.906;8.404;2022-09-09T20:02:27;18.90;99.90
1411;DHT22;700;51.906;8.404;2022-09-09T20:07:28;18.80;99.90
1411;DHT22;700;51.906;8.404;2022-09-09T20:12:28;18.80;99.90
1411;DHT22;700;51.906;8.404;2022-09-09T20:17:30;18.70;99.90
1411;DHT22;700;51.906;8.404;2022-09-09T20:22:33;18.70;99.90
1411;DHT22;700;51.906;8.404;2022-09-09T20:27:36;18.70;99.90
1411;DHT22;700;51.906;8.404;2022-09-09T20:32:36;18.70;99.90
1411;DHT22;700;51.906;8.404;2022-09-09T20:37:39;18.80;99.90
1411;DHT22;700;51.906;8.404;2022-09-09T20:42:40;18.60;99.90
1411;DHT22;700;51.906;8.404;2022-09-09T20:47:40;18.40;99.90
1411;DHT22;700;51.906;8.404;2022-09-09T20:52:41;18.30;99.90
1411;DHT22;700;51.906;8.404;2022-09-09T20:57:42;18.30;99.90
1411;DHT22;700;51.906;8.404;2022-09-09T21:02:42;18.30;99.90
1411;DHT22;700;51.906;8.404;2022-09-09T21:07:46;18.20;99.90
1411;DHT22;700;51.906;8.404;2022-09-09T21:12:46;18.10;99.90
1411;DHT22;700;51.906;8.404;2022-09-09T21:17:49;17.90;99.90
1411;DHT22;700;51.906;8.404;2022-09-09T21:22:50;18.00;99.90
1411;DHT22;700;51.906;8.404;2022-09-09T21:27:53;17.90;99.90
1411;DHT22;700;51.906;8.404;2022-09-09T21:32:54;17.80;99.90
1411;DHT22;700;51.906;8.404;2022-09-09T21:37:55;18.10;99.90
1411;DHT22;700;51.906;8.404;2022-09-09T21:42:55;18.20;99.90
1411;DHT22;700;51.906;8.404;2022-09-09T21:48:01;18.00;99.90
1411;DHT22;700;51.906;8.404;2022-09-09T21:53:01;17.80;99.90
1411;DHT22;700;51.906;8.404;2022-09-09T21:58:03;17.90;99.90
1411;DHT22;700;51.906;8.404;2022-09-09T22:03:06;17.90;99.90
1411;DHT22;700;51.906;8.404;2022-09-09T22:08:11;17.90;99.90
1411;DHT22;700;51.906;8.404;2022-09-09T22:13:16;17.80;99.90
1411;DHT22;700;51.906;8.404;2022-09-09T22:18:16;17.80;99.90
1411;DHT22;700;51.906;8.404;2022-09-09T22:23:18;17.80;99.90
1411;DHT22;700;51.906;8.404;2022-09-09T22:28:23;17.70;99.90
1411;DHT22;700;51.906;8.404;2022-09-09T22:33:24;17.70;99.90
1411;DHT22;700;51.906;8.404;2022-09-09T22:38:26;17.80;99.90
1411;DHT22;700;51.906;8.404;2022-09-09T22:43:30;17.90;99.90
1411;DHT22;700;51.906;8.404;2022-09-09T22:48:36;17.80;99.90
1411;DHT22;700;51.906;8.404;2022-09-09T22:53:38;17.80;99.90
1411;DHT22;700;51.906;8.404;2022-09-09T22:58:40;17.70;99.90
1411;DHT22;700;51.906;8.404;2022-09-09T23:03:41;17.80;99.90
1411;DHT22;700;51.906;8.404;2022-09-09T23:08:45;17.90;99.90
1411;DHT22;700;51.906;8.404;2022-09-09T23:13:52;18.00;99.90
1411;DHT22;700;51.906;8.404;2022-09-09T23:18:54;18.10;99.90
1411;DHT22;700;51.906;8.404;2022-09-09T23:23:58;18.00;99.90
1411;DHT22;700;51.906;8.404;2022-09-09T23:29:01;17.90;99.90
1411;DHT22;700;51.906;8.404;2022-09-09T23:34:05;18.00;99.90
1411;DHT22;700;51.906;8.404;2022-09-09T23:39:06;18.10;99.90
1411;DHT22;700;51.906;8.404;2022-09-09T23:44:10;18.00;99.90
1411;DHT22;700;51.906;8.404;2022-09-09T23:49:12;18.20;99.90
1411;DHT22;700;51.906;8.404;2022-09-09T23:54:15;18.30;99.90
1411;DHT22;700;51.906;8.404;2022-09-09T23:59:18;18.20;99.90
